Wetterdaten: Woche 20.07.15 - 26.07.15 (KW30)
Datum Zeit Temp. A. Feuchte A. Luftdruck Regen Wind Richtung Sonnenschein ET UV Solar Taupunkt Windchill Windben
20.07.2015 00:00 18,0 C 92 % 1011,9 hPa 0,0 l/m 0,6 km/h (0 Bft) N 0,00 h 0,025 mm 0,0 UV-I 0 W/m 16,6 C 18,0 C 2,6 km/h (1 Bft)
20.07.2015 01:00 17,3 C 92 % 1012,3 hPa 0,0 l/m 0,0 km/h (0 Bft) N 0,00 h 0,000 mm 0,0 UV-I 0 W/m 15,9 C 17,3 C 0,1 km/h (0 Bft)
20.07.2015 02:00 16,9 C 92 % 1012,6 hPa 0,0 l/m 0,0 km/h (0 Bft) N 0,00 h 0,000 mm 0,0 UV-I 0 W/m 15,6 C 16,9 C 0,1 km/h (0 Bft)
20.07.2015 03:00 16,7 C 89 % 1012,9 hPa 0,0 l/m 0,1 km/h (0 Bft) N 0,00 h 0,000 mm 0,0 UV-I 0 W/m 14,9 C 16,7 C 0,5 km/h (0 Bft)
20.07.2015 04:00 16,0 C 91 % 1013,1 hPa 0,0 l/m 0,1 km/h (0 Bft) N 0,00 h 0,000 mm 0,0 UV-I 0 W/m 14,5 C 16,0 C 0,9 km/h (0 Bft)
20.07.2015 05:00 15,6 C 92 % 1013,1 hPa 0,0 l/m 0,0 km/h (0 Bft) N 0,00 h 0,000 mm 0,0 UV-I 10 W/m 14,3 C 15,6 C 0,0 km/h (0 Bft)
20.07.2015 06:00 15,8 C 93 % 1013,4 hPa 0,0 l/m 0,0 km/h (0 Bft) N 0,13 h 0,000 mm 0,0 UV-I 32 W/m 14,6 C 15,8 C 0,1 km/h (0 Bft)
20.07.2015 07:00 17,1 C 89 % 1013,7 hPa 0,0 l/m 1,0 km/h (0 Bft) N 0,85 h 0,025 mm 0,8 UV-I 151 W/m 15,2 C 17,1 C 2,4 km/h (1 Bft)
20.07.2015 08:00 19,0 C 80 % 1013,8 hPa 0,0 l/m 3,5 km/h (1 Bft) W-SW 1,00 h 0,076 mm 1,5 UV-I 360 W/m 15,6 C 18,9 C 7,2 km/h (2 Bft)
20.07.2015 09:00 19,7 C 79 % 1013,8 hPa 0,0 l/m 4,6 km/h (1 Bft) W-SW 1,00 h 0,203 mm 2,1 UV-I 279 W/m 16,0 C 19,5 C 9,1 km/h (2 Bft)
20.07.2015 10:00 21,3 C 74 % 1013,8 hPa 0,0 l/m 3,8 km/h (1 Bft) W-NW 1,00 h 0,178 mm 3,1 UV-I 371 W/m 16,5 C 21,2 C 8,0 km/h (2 Bft)
20.07.2015 11:00 21,9 C 71 % 1013,9 hPa 0,0 l/m 3,9 km/h (1 Bft) W 1,00 h 0,229 mm 3,1 UV-I 320 W/m 16,5 C 21,8 C 8,2 km/h (2 Bft)
20.07.2015 12:00 22,2 C 69 % 1013,9 hPa 0,0 l/m 3,0 km/h (1 Bft) W 1,00 h 0,229 mm 2,7 UV-I 268 W/m 16,3 C 22,2 C 6,7 km/h (2 Bft)
20.07.2015 13:00 23,6 C 64 % 1013,9 hPa 0,0 l/m 4,0 km/h (1 Bft) W 1,00 h 0,178 mm 4,3 UV-I 385 W/m 16,4 C 23,5 C 8,7 km/h (2 Bft)
20.07.2015 14:00 24,0 C 63 % 1013,8 hPa 0,0 l/m 5,2 km/h (1 Bft) W-NW 1,00 h 0,305 mm 3,8 UV-I 432 W/m 16,4 C 23,9 C 9,9 km/h (2 Bft)
20.07.2015 15:00 24,3 C 61 % 1013,5 hPa 0,0 l/m 6,5 km/h (2 Bft) W 1,00 h 0,305 mm 3,1 UV-I 371 W/m 16,4 C 24,0 C 13,0 km/h (3 Bft)
20.07.2015 16:00 25,0 C 59 % 1013,2 hPa 0,0 l/m 6,1 km/h (2 Bft) W-SW 1,00 h 0,279 mm 2,5 UV-I 368 W/m 16,5 C 24,7 C 12,1 km/h (2 Bft)
20.07.2015 17:00 23,9 C 62 % 1013,3 hPa 0,0 l/m 5,0 km/h (1 Bft) W 1,00 h 0,279 mm 0,9 UV-I 124 W/m 16,2 C 23,8 C 10,0 km/h (2 Bft)
20.07.2015 18:00 23,6 C 65 % 1013,4 hPa 0,0 l/m 3,5 km/h (1 Bft) W 1,00 h 0,102 mm 0,7 UV-I 125 W/m 16,6 C 23,6 C 7,0 km/h (2 Bft)
20.07.2015 19:00 23,1 C 67 % 1013,4 hPa 0,0 l/m 1,1 km/h (1 Bft) N 0,30 h 0,102 mm 0,6 UV-I 56 W/m 16,6 C 23,1 C 2,9 km/h (1 Bft)
20.07.2015 20:00 22,3 C 69 % 1013,3 hPa 0,0 l/m 0,9 km/h (0 Bft) N 0,00 h 0,051 mm 0,0 UV-I 16 W/m 16,4 C 22,3 C 2,2 km/h (1 Bft)
20.07.2015 21:00 20,8 C 77 % 1013,6 hPa 0,0 l/m 0,0 km/h (0 Bft) N 0,00 h 0,025 mm 0,0 UV-I 5 W/m 16,6 C 20,8 C 0,0 km/h (0 Bft)
20.07.2015 22:00 18,8 C 86 % 1014,0 hPa 0,0 l/m 0,0 km/h (0 Bft) N 0,00 h 0,000 mm 0,0 UV-I 0 W/m 16,5 C 18,8 C 0,0 km/h (0 Bft)
20.07.2015 23:00 17,9 C 89 % 1014,0 hPa 0,0 l/m 0,0 km/h (0 Bft) N 0,00 h 0,000 mm 0,0 UV-I 0 W/m 16,0 C 17,9 C 0,0 km/h (0 Bft)
21.07.2015 00:00 17,2 C 91 % 1014,3 hPa 0,0 l/m 0,0 km/h (0 Bft) N 0,00 h 0,000 mm 0,0 UV-I 0 W/m 15,7 C 17,2 C 0,0 km/h (0 Bft)
21.07.2015 01:00 16,8 C 91 % 1014,3 hPa 0,0 l/m 0,0 km/h (0 Bft) N 0,00 h 0,000 mm 0,0 UV-I 0 W/m 15,4 C 16,8 C 0,0 km/h (0 Bft)
21.07.2015 02:00 16,4 C 92 % 1014,1 hPa 0,0 l/m 0,0 km/h (0 Bft) N 0,00 h 0,000 mm 0,0 UV-I 0 W/m 15,1 C 16,4 C 0,0 km/h (0 Bft)
21.07.2015 03:00 16,2 C 93 % 1014,0 hPa 0,0 l/m 0,0 km/h (0 Bft) N 0,00 h 0,000 mm 0,0 UV-I 0 W/m 15,1 C 16,2 C 0,0 km/h (0 Bft)
21.07.2015 04:00 16,3 C 93 % 1014,0 hPa 0,0 l/m 0,0 km/h (0 Bft) N 0,00 h 0,000 mm 0,0 UV-I 0 W/m 15,1 C 16,3 C 0,0 km/h (0 Bft)
21.07.2015 05:00 16,2 C 94 % 1014,0 hPa 0,0 l/m 0,0 km/h (0 Bft) N 0,00 h 0,000 mm 0,0 UV-I 9 W/m 15,1 C 16,2 C 0,0 km/h (0 Bft)
21.07.2015 06:00 16,7 C 93 % 1014,3 hPa 0,0 l/m 0,0 km/h (0 Bft) N 0,03 h 0,000 mm 0,0 UV-I 34 W/m 15,5 C 16,7 C 0,0 km/h (0 Bft)
21.07.2015 07:00 18,8 C 88 % 1014,3 hPa 0,0 l/m 0,2 km/h (0 Bft) N 0,85 h 0,025 mm 0,8 UV-I 168 W/m 16,6 C 18,8 C 0,9 km/h (0 Bft)
21.07.2015 08:00 22,7 C 75 % 1014,3 hPa 0,0 l/m 1,3 km/h (1 Bft) N 1,00 h 0,102 mm 1,6 UV-I 416 W/m 18,0 C 22,7 C 2,7 km/h (1 Bft)
21.07.2015 09:00 25,0 C 68 % 1014,2 hPa 0,0 l/m 3,6 km/h (1 Bft) W-SW 1,00 h 0,254 mm 2,4 UV-I 477 W/m 18,6 C 24,9 C 7,7 km/h (2 Bft)
21.07.2015 10:00 25,4 C 66 % 1014,0 hPa 0,0 l/m 4,0 km/h (1 Bft) W-SW 1,00 h 0,305 mm 2,4 UV-I 279 W/m 18,6 C 25,3 C 8,9 km/h (2 Bft)
21.07.2015 11:00 26,5 C 61 % 1014,0 hPa 0,0 l/m 7,9 km/h (2 Bft) W 1,00 h 0,229 mm 3,7 UV-I 427 W/m 18,4 C 26,1 C 14,6 km/h (3 Bft)
21.07.2015 12:00 27,6 C 55 % 1014,1 hPa 0,0 l/m 9,5 km/h (2 Bft) W 1,00 h 0,356 mm 5,5 UV-I 669 W/m 17,8 C 27,1 C 17,9 km/h (3 Bft)
21.07.2015 13:00 29,1 C 50 % 1014,0 hPa 0,0 l/m 10,9 km/h (2 Bft) W 1,00 h 0,508 mm 6,8 UV-I 849 W/m 17,4 C 28,6 C 20,9 km/h (4 Bft)
21.07.2015 14:00 29,6 C 47 % 1013,8 hPa 0,0 l/m 10,3 km/h (2 Bft) W 1,00 h 0,660 mm 6,0 UV-I 754 W/m 17,1 C 29,3 C 19,1 km/h (3 Bft)
21.07.2015 15:00 29,3 C 46 % 1013,7 hPa 0,0 l/m 7,9 km/h (2 Bft) W 1,00 h 0,584 mm 4,1 UV-I 512 W/m 16,5 C 29,1 C 15,2 km/h (3 Bft)
21.07.2015 16:00 28,8 C 47 % 1013,3 hPa 0,0 l/m 5,5 km/h (2 Bft) W 1,00 h 0,406 mm 2,9 UV-I 353 W/m 16,3 C 28,7 C 11,3 km/h (2 Bft)
21.07.2015 17:00 29,4 C 46 % 1013,2 hPa 0,0 l/m 5,6 km/h (2 Bft) W-NW 1,00 h 0,305 mm 2,0 UV-I 401 W/m 16,6 C 29,3 C 10,9 km/h (2 Bft)
21.07.2015 18:00 28,4 C 46 % 1013,0 hPa 0,0 l/m 6,2 km/h (2 Bft) W 0,82 h 0,305 mm 1,0 UV-I 64 W/m 15,5 C 28,3 C 12,5 km/h (2 Bft)
21.07.2015 19:00 27,5 C 48 % 1013,0 hPa 0,0 l/m 3,5 km/h (1 Bft) W-NW 0,00 h 0,102 mm 0,0 UV-I 30 W/m 15,5 C 27,4 C 7,8 km/h (2 Bft)
21.07.2015 20:00 26,4 C 52 % 1013,2 hPa 0,0 l/m 1,4 km/h (1 Bft) N 0,00 h 0,051 mm 0,0 UV-I 15 W/m 15,7 C 26,3 C 3,2 km/h (1 Bft)
21.07.2015 21:00 23,8 C 63 % 1013,6 hPa 0,0 l/m 0,0 km/h (0 Bft) N 0,00 h 0,025 mm 0,0 UV-I 5 W/m 16,4 C 23,8 C 0,0 km/h (0 Bft)
21.07.2015 22:00 21,2 C 75 % 1014,0 hPa 0,0 l/m 0,0 km/h (0 Bft) N 0,00 h 0,000 mm 0,0 UV-I 0 W/m 16,6 C 21,2 C 0,0 km/h (0 Bft)
21.07.2015 23:00 19,5 C 82 % 1014,3 hPa 0,0 l/m 0,0 km/h (0 Bft) N 0,00 h 0,025 mm 0,0 UV-I 0 W/m 16,3 C 19,5 C 0,0 km/h (0 Bft)
22.07.2015 00:00 18,3 C 86 % 1014,3 hPa 0,0 l/m 0,0 km/h (0 Bft) N 0,00 h 0,025 mm 0,0 UV-I 0 W/m 15,9 C 18,3 C 0,0 km/h (0 Bft)
22.07.2015 01:00 17,2 C 88 % 1014,1 hPa 0,0 l/m 0,0 km/h (0 Bft) N 0,00 h 0,000 mm 0,0 UV-I 0 W/m 15,2 C 17,2 C 0,0 km/h (0 Bft)
22.07.2015 02:00 16,5 C 90 % 1013,9 hPa 0,0 l/m 0,0 km/h (0 Bft) N 0,00 h 0,000 mm 0,0 UV-I 0 W/m 14,7 C 16,5 C 0,0 km/h (0 Bft)
22.07.2015 03:00 15,8 C 92 % 1013,8 hPa 0,0 l/m 0,0 km/h (0 Bft) N 0,00 h 0,000 mm 0,0 UV-I 0 W/m 14,5 C 15,8 C 0,0 km/h (0 Bft)
22.07.2015 04:00 15,7 C 92 % 1013,7 hPa 0,0 l/m 0,0 km/h (0 Bft) N 0,00 h 0,000 mm 0,0 UV-I 0 W/m 14,4 C 15,7 C 0,0 km/h (0 Bft)
22.07.2015 05:00 15,1 C 93 % 1013,7 hPa 0,0 l/m 0,0 km/h (0 Bft) N 0,00 h 0,000 mm 0,0 UV-I 6 W/m 13,9 C 15,1 C 0,0 km/h (0 Bft)
22.07.2015 06:00 15,4 C 93 % 1014,0 hPa 0,0 l/m 0,0 km/h (0 Bft) N 0,00 h 0,000 mm 0,0 UV-I 16 W/m 14,3 C 15,4 C 0,0 km/h (0 Bft)
22.07.2015 07:00 18,1 C 86 % 1014,1 hPa 0,0 l/m 0,0 km/h (0 Bft) N 0,53 h 0,000 mm 0,9 UV-I 157 W/m 15,7 C 18,1 C 0,0 km/h (0 Bft)
22.07.2015 08:00 22,9 C 73 % 1014,0 hPa 0,0 l/m 0,0 km/h (0 Bft) N 1,00 h 0,102 mm 1,7 UV-I 423 W/m 17,8 C 22,9 C 0,0 km/h (0 Bft)
22.07.2015 09:00 26,7 C 59 % 1013,5 hPa 0,0 l/m 0,0 km/h (0 Bft) N 1,00 h 0,254 mm 2,9 UV-I 582 W/m 17,9 C 26,7 C 0,0 km/h (0 Bft)
22.07.2015 10:00 29,6 C 47 % 1013,1 hPa 0,0 l/m 1,3 km/h (1 Bft) N 1,00 h 0,381 mm 4,2 UV-I 695 W/m 17,2 C 29,6 C 3,5 km/h (1 Bft)
22.07.2015 11:00 31,2 C 37 % 1012,7 hPa 0,0 l/m 3,2 km/h (1 Bft) S 1,00 h 0,483 mm 5,7 UV-I 751 W/m 14,9 C 31,2 C 6,2 km/h (2 Bft)
22.07.2015 12:00 32,4 C 33 % 1012,2 hPa 0,0 l/m 4,0 km/h (1 Bft) S 1,00 h 0,533 mm 6,8 UV-I 837 W/m 14,1 C 32,3 C 8,3 km/h (2 Bft)
22.07.2015 13:00 33,5 C 32 % 1011,7 hPa 0,0 l/m 4,0 km/h (1 Bft) S-SO 1,00 h 0,635 mm 7,3 UV-I 908 W/m 14,5 C 33,5 C 8,8 km/h (2 Bft)
22.07.2015 14:00 33,9 C 32 % 1011,0 hPa 0,0 l/m 4,5 km/h (1 Bft) S 1,00 h 0,686 mm 5,9 UV-I 736 W/m 14,9 C 33,9 C 9,3 km/h (2 Bft)
22.07.2015 15:00 33,7 C 33 % 1010,1 hPa 0,0 l/m 2,7 km/h (1 Bft) N 1,00 h 0,584 mm 4,0 UV-I 498 W/m 14,9 C 33,7 C 5,7 km/h (2 Bft)
22.07.2015 16:00 33,4 C 33 % 1009,3 hPa 0,0 l/m 1,3 km/h (1 Bft) N 1,00 h 0,381 mm 3,0 UV-I 454 W/m 14,7 C 33,4 C 3,1 km/h (1 Bft)
22.07.2015 17:00 33,9 C 31 % 1008,6 hPa 0,0 l/m 4,1 km/h (1 Bft) SO 1,00 h 0,356 mm 1,9 UV-I 460 W/m 14,4 C 33,9 C 7,6 km/h (2 Bft)
22.07.2015 18:00 32,1 C 34 % 1007,8 hPa 0,0 l/m 0,3 km/h (0 Bft) N 0,42 h 0,381 mm 0,8 UV-I 48 W/m 14,0 C 32,1 C 1,3 km/h (1 Bft)
22.07.2015 19:00 25,5 C 65 % 1009,1 hPa 2,8 l/m 11,9 km/h (2 Bft) NW 0,00 h 0,051 mm 0,0 UV-I 8 W/m 17,6 C 24,2 C 19,7 km/h (3 Bft)
22.07.2015 20:00 20,5 C 89 % 1009,6 hPa 0,0 l/m 4,3 km/h (1 Bft) N 0,00 h 0,076 mm 0,0 UV-I 5 W/m 18,6 C 20,1 C 9,0 km/h (2 Bft)
22.07.2015 21:00 20,1 C 89 % 1010,6 hPa 0,0 l/m 1,4 km/h (1 Bft) N 0,00 h 0,000 mm 0,0 UV-I 0 W/m 18,2 C 20,1 C 3,9 km/h (1 Bft)
22.07.2015 22:00 19,8 C 90 % 1009,7 hPa 0,0 l/m 0,3 km/h (0 Bft) N 0,00 h 0,000 mm 0,0 UV-I 0 W/m 18,1 C 19,8 C 1,6 km/h (1 Bft)
22.07.2015 23:00 19,6 C 90 % 1009,5 hPa 0,0 l/m 0,0 km/h (0 Bft) N 0,00 h 0,000 mm 0,0 UV-I 0 W/m 18,0 C 19,6 C 0,2 km/h (0 Bft)
23.07.2015 00:00 19,6 C 90 % 1010,4 hPa 0,0 l/m 1,1 km/h (1 Bft) N 0,00 h 0,000 mm 0,0 UV-I 0 W/m 18,0 C 19,6 C 2,7 km/h (1 Bft)
23.07.2015 01:00 19,2 C 90 % 1010,9 hPa 0,0 l/m 0,1 km/h (0 Bft) N 0,00 h 0,000 mm 0,0 UV-I 0 W/m 17,6 C 19,2 C 0,3 km/h (0 Bft)
23.07.2015 02:00 19,0 C 92 % 1011,1 hPa 0,0 l/m 0,0 km/h (0 Bft) N 0,00 h 0,000 mm 0,0 UV-I 0 W/m 17,8 C 19,0 C 0,0 km/h (0 Bft)
23.07.2015 03:00 18,4 C 95 % 1011,3 hPa 0,0 l/m 0,0 km/h (0 Bft) N 0,00 h 0,000 mm 0,0 UV-I 0 W/m 17,5 C 18,4 C 0,0 km/h (0 Bft)
23.07.2015 04:00 18,1 C 96 % 1011,3 hPa 0,2 l/m 0,0 km/h (0 Bft) N 0,00 h 0,000 mm 0,0 UV-I 0 W/m 17,4 C 18,1 C 0,0 km/h (0 Bft)
23.07.2015 05:00 18,3 C 95 % 1011,3 hPa 0,0 l/m 0,2 km/h (0 Bft) N 0,00 h 0,000 mm 0,0 UV-I 0 W/m 17,4 C 18,3 C 0,9 km/h (0 Bft)
23.07.2015 06:00 18,8 C 95 % 1011,8 hPa 0,0 l/m 1,3 km/h (1 Bft) N 0,00 h 0,000 mm 0,0 UV-I 10 W/m 17,9 C 18,7 C 3,6 km/h (1 Bft)
23.07.2015 07:00 18,0 C 92 % 1012,7 hPa 0,0 l/m 7,4 km/h (2 Bft) N 0,25 h 0,000 mm 0,0 UV-I 29 W/m 16,7 C 17,2 C 13,2 km/h (3 Bft)
23.07.2015 08:00 17,8 C 90 % 1013,5 hPa 0,0 l/m 1,7 km/h (1 Bft) N 0,93 h 0,025 mm 0,6 UV-I 72 W/m 16,0 C 17,7 C 4,0 km/h (1 Bft)
23.07.2015 09:00 18,1 C 89 % 1013,9 hPa 0,0 l/m 0,1 km/h (0 Bft) N 0,60 h 0,051 mm 1,0 UV-I 85 W/m 16,2 C 18,1 C 0,5 km/h (0 Bft)
23.07.2015 10:00 18,4 C 87 % 1014,5 hPa 0,0 l/m 0,1 km/h (0 Bft) N 0,88 h 0,051 mm 1,1 UV-I 109 W/m 16,1 C 18,4 C 0,3 km/h (0 Bft)
23.07.2015 11:00 19,1 C 83 % 1014,9 hPa 0,0 l/m 0,0 km/h (0 Bft) N 1,00 h 0,076 mm 2,0 UV-I 201 W/m 16,2 C 19,1 C 0,5 km/h (0 Bft)
23.07.2015 12:00 19,3 C 83 % 1014,8 hPa 0,0 l/m 0,1 km/h (0 Bft) N 1,00 h 0,127 mm 1,8 UV-I 188 W/m 16,4 C 19,3 C 0,4 km/h (0 Bft)
23.07.2015 13:00 21,0 C 77 % 1014,7 hPa 0,0 l/m 0,9 km/h (0 Bft) N 1,00 h 0,102 mm 4,4 UV-I 443 W/m 16,8 C 21,0 C 2,1 km/h (1 Bft)
23.07.2015 14:00 22,7 C 67 % 1014,3 hPa 0,0 l/m 2,4 km/h (1 Bft) W-SW 1,00 h 0,279 mm 4,6 UV-I 549 W/m 16,2 C 22,7 C 5,3 km/h (1 Bft)
23.07.2015 15:00 22,6 C 63 % 1014,1 hPa 0,0 l/m 2,6 km/h (1 Bft) W 1,00 h 0,330 mm 2,0 UV-I 213 W/m 15,1 C 22,5 C 6,2 km/h (2 Bft)
23.07.2015 16:00 22,5 C 62 % 1014,0 hPa 0,0 l/m 2,9 km/h (1 Bft) W 1,00 h 0,152 mm 1,7 UV-I 222 W/m 14,7 C 22,5 C 6,7 km/h (2 Bft)
23.07.2015 17:00 23,4 C 58 % 1013,6 hPa 0,0 l/m 1,0 km/h (0 Bft) N 1,00 h 0,152 mm 2,0 UV-I 378 W/m 14,6 C 23,4 C 2,9 km/h (1 Bft)
23.07.2015 18:00 23,5 C 55 % 1013,3 hPa 0,0 l/m 2,1 km/h (1 Bft) N 1,00 h 0,254 mm 0,9 UV-I 113 W/m 13,9 C 23,5 C 5,2 km/h (1 Bft)
23.07.2015 19:00 22,8 C 54 % 1013,3 hPa 0,0 l/m 3,4 km/h (1 Bft) N-NW 0,97 h 0,102 mm 0,5 UV-I 77 W/m 13,0 C 22,8 C 7,2 km/h (2 Bft)
23.07.2015 20:00 21,4 C 58 % 1013,8 hPa 0,0 l/m 0,2 km/h (0 Bft) N 0,00 h 0,076 mm 0,0 UV-I 18 W/m 12,8 C 21,4 C 1,0 km/h (0 Bft)
23.07.2015 21:00 19,7 C 65 % 1014,5 hPa 0,0 l/m 0,1 km/h (0 Bft) N 0,00 h 0,025 mm 0,0 UV-I 0 W/m 12,9 C 19,7 C 0,6 km/h (0 Bft)
23.07.2015 22:00 18,6 C 72 % 1015,0 hPa 0,0 l/m 0,0 km/h (0 Bft) N 0,00 h 0,000 mm 0,0 UV-I 0 W/m 13,4 C 18,6 C 0,0 km/h (0 Bft)
23.07.2015 23:00 18,2 C 77 % 1014,9 hPa 0,0 l/m 0,0 km/h (0 Bft) N 0,00 h 0,025 mm 0,0 UV-I 0 W/m 14,1 C 18,2 C 0,0 km/h (0 Bft)
24.07.2015 00:00 17,0 C 83 % 1014,6 hPa 0,0 l/m 0,0 km/h (0 Bft) N 0,00 h 0,025 mm 0,0 UV-I 0 W/m 14,1 C 17,0 C 0,1 km/h (0 Bft)
24.07.2015 01:00 15,7 C 87 % 1014,3 hPa 0,0 l/m 0,0 km/h (0 Bft) N 0,00 h 0,025 mm 0,0 UV-I 0 W/m 13,6 C 15,7 C 0,0 km/h (0 Bft)
24.07.2015 02:00 15,1 C 90 % 1014,3 hPa 0,0 l/m 0,0 km/h (0 Bft) N 0,00 h 0,000 mm 0,0 UV-I 0 W/m 13,3 C 15,1 C 0,4 km/h (0 Bft)
24.07.2015 03:00 14,6 C 90 % 1014,1 hPa 0,0 l/m 0,2 km/h (0 Bft) N 0,00 h 0,000 mm 0,0 UV-I 0 W/m 12,9 C 14,6 C 0,7 km/h (0 Bft)
24.07.2015 04:00 13,9 C 92 % 1014,1 hPa 0,0 l/m 0,0 km/h (0 Bft) N 0,00 h 0,000 mm 0,0 UV-I 0 W/m 12,6 C 13,9 C 0,0 km/h (0 Bft)
24.07.2015 05:00 13,3 C 94 % 1014,0 hPa 0,0 l/m 0,0 km/h (0 Bft) N 0,00 h 0,000 mm 0,0 UV-I 9 W/m 12,4 C 13,3 C 0,0 km/h (0 Bft)
24.07.2015 06:00 14,0 C 93 % 1013,9 hPa 0,0 l/m 0,0 km/h (0 Bft) N 0,00 h 0,000 mm 0,0 UV-I 30 W/m 12,9 C 14,0 C 0,1 km/h (0 Bft)
24.07.2015 07:00 15,7 C 89 % 1013,8 hPa 0,0 l/m 0,0 km/h (0 Bft) N 0,73 h 0,025 mm 0,6 UV-I 64 W/m 13,9 C 15,7 C 0,2 km/h (0 Bft)
24.07.2015 08:00 19,6 C 76 % 1013,4 hPa 0,0 l/m 2,5 km/h (1 Bft) O-NO 1,00 h 0,025 mm 1,5 UV-I 370 W/m 15,2 C 19,6 C 6,3 km/h (2 Bft)
24.07.2015 09:00 22,6 C 64 % 1013,0 hPa 0,0 l/m 2,5 km/h (1 Bft) O 1,00 h 0,229 mm 2,6 UV-I 542 W/m 15,5 C 22,5 C 6,3 km/h (2 Bft)
24.07.2015 10:00 23,7 C 62 % 1012,5 hPa 0,0 l/m 3,7 km/h (1 Bft) O-SO 1,00 h 0,330 mm 3,3 UV-I 534 W/m 15,9 C 23,6 C 8,4 km/h (2 Bft)
24.07.2015 11:00 24,0 C 62 % 1012,2 hPa 0,0 l/m 5,7 km/h (2 Bft) SO 1,00 h 0,356 mm 3,9 UV-I 548 W/m 16,3 C 23,7 C 11,8 km/h (2 Bft)
24.07.2015 12:00 25,1 C 59 % 1011,5 hPa 0,0 l/m 4,0 km/h (1 Bft) SO 1,00 h 0,356 mm 4,9 UV-I 571 W/m 16,5 C 25,0 C 9,7 km/h (2 Bft)
24.07.2015 13:00 25,6 C 57 % 1010,8 hPa 0,0 l/m 2,5 km/h (1 Bft) SO 1,00 h 0,381 mm 3,5 UV-I 364 W/m 16,5 C 25,5 C 6,7 km/h (2 Bft)
24.07.2015 14:00 26,2 C 55 % 1010,0 hPa 0,0 l/m 2,6 km/h (1 Bft) O-SO 1,00 h 0,254 mm 3,4 UV-I 405 W/m 16,3 C 26,2 C 6,0 km/h (2 Bft)
24.07.2015 15:00 26,5 C 54 % 1009,2 hPa 0,0 l/m 3,6 km/h (1 Bft) SO 1,00 h 0,279 mm 3,0 UV-I 388 W/m 16,5 C 26,4 C 7,8 km/h (2 Bft)
24.07.2015 16:00 27,2 C 55 % 1008,4 hPa 0,0 l/m 3,7 km/h (1 Bft) O-NO 1,00 h 0,279 mm 2,7 UV-I 425 W/m 17,3 C 27,2 C 8,6 km/h (2 Bft)
24.07.2015 17:00 27,8 C 53 % 1007,4 hPa 0,0 l/m 2,7 km/h (1 Bft) O-NO 1,00 h 0,305 mm 1,9 UV-I 409 W/m 17,4 C 27,8 C 7,4 km/h (2 Bft)
24.07.2015 18:00 27,0 C 56 % 1006,6 hPa 0,0 l/m 3,3 km/h (1 Bft) O-NO 1,00 h 0,279 mm 0,9 UV-I 166 W/m 17,5 C 27,0 C 8,3 km/h (2 Bft)
24.07.2015 19:00 26,4 C 58 % 1006,2 hPa 0,0 l/m 2,8 km/h (1 Bft) O-NO 0,97 h 0,127 mm 0,6 UV-I 104 W/m 17,5 C 26,4 C 6,9 km/h (2 Bft)
24.07.2015 20:00 24,9 C 63 % 1005,9 hPa 0,0 l/m 1,3 km/h (1 Bft) O-NO 0,00 h 0,102 mm 0,0 UV-I 25 W/m 17,4 C 24,9 C 4,5 km/h (1 Bft)
24.07.2015 21:00 23,5 C 67 % 1005,9 hPa 0,0 l/m 0,4 km/h (0 Bft) N 0,00 h 0,025 mm 0,0 UV-I 0 W/m 17,0 C 23,5 C 1,6 km/h (1 Bft)
24.07.2015 22:00 22,3 C 69 % 1005,6 hPa 0,0 l/m 0,7 km/h (0 Bft) N 0,00 h 0,000 mm 0,0 UV-I 0 W/m 16,4 C 22,3 C 2,6 km/h (1 Bft)
24.07.2015 23:00 21,9 C 68 % 1005,2 hPa 0,0 l/m 1,2 km/h (1 Bft) O 0,00 h 0,025 mm 0,0 UV-I 0 W/m 15,7 C 21,9 C 4,1 km/h (1 Bft)
25.07.2015 00:00 21,0 C 70 % 1004,7 hPa 0,0 l/m 0,1 km/h (0 Bft) N 0,00 h 0,025 mm 0,0 UV-I 0 W/m 15,4 C 21,0 C 0,7 km/h (0 Bft)
25.07.2015 01:00 20,2 C 73 % 1003,9 hPa 0,0 l/m 0,0 km/h (0 Bft) N 0,00 h 0,025 mm 0,0 UV-I 0 W/m 15,2 C 20,2 C 0,4 km/h (0 Bft)
25.07.2015 02:00 19,5 C 77 % 1003,2 hPa 0,0 l/m 0,3 km/h (0 Bft) N 0,00 h 0,025 mm 0,0 UV-I 0 W/m 15,4 C 19,5 C 0,6 km/h (0 Bft)
25.07.2015 03:00 18,7 C 86 % 1004,0 hPa 3,4 l/m 8,6 km/h (2 Bft) W 0,00 h 0,025 mm 0,0 UV-I 0 W/m 16,4 C 17,5 C 17,9 km/h (3 Bft)
25.07.2015 04:00 17,9 C 93 % 1003,6 hPa 0,6 l/m 0,3 km/h (0 Bft) N 0,00 h 0,025 mm 0,0 UV-I 0 W/m 16,8 C 17,9 C 2,2 km/h (1 Bft)
25.07.2015 08:00 19,4 C 87 % 1004,6 hPa 0,0 l/m 10,0 km/h (2 Bft) S 1,15 h 0,000 mm 1,6 UV-I 275 W/m 17,2 C 18,0 C 15,3 km/h (3 Bft)
25.07.2015 09:00 19,9 C 86 % 1004,7 hPa 0,0 l/m 7,4 km/h (2 Bft) S 1,00 h 0,178 mm 2,0 UV-I 327 W/m 17,4 C 19,1 C 14,0 km/h (3 Bft)
25.07.2015 10:00 20,5 C 82 % 1004,7 hPa 0,0 l/m 5,5 km/h (2 Bft) S 1,00 h 0,203 mm 2,7 UV-I 354 W/m 17,2 C 20,1 C 12,8 km/h (3 Bft)
25.07.2015 11:00 22,3 C 74 % 1004,5 hPa 0,0 l/m 6,1 km/h (2 Bft) SW 1,00 h 0,229 mm 4,3 UV-I 564 W/m 17,5 C 21,9 C 13,5 km/h (3 Bft)
25.07.2015 12:00 24,2 C 60 % 1004,2 hPa 0,0 l/m 10,5 km/h (2 Bft) W-SW 1,00 h 0,381 mm 5,0 UV-I 645 W/m 15,8 C 23,2 C 21,2 km/h (4 Bft)
25.07.2015 13:00 24,3 C 51 % 1004,6 hPa 0,0 l/m 14,5 km/h (3 Bft) W 1,00 h 0,457 mm 5,5 UV-I 618 W/m 13,6 C 22,7 C 26,8 km/h (4 Bft)
25.07.2015 14:00 25,2 C 36 % 1005,3 hPa 0,0 l/m 16,1 km/h (3 Bft) W 1,00 h 0,508 mm 6,0 UV-I 861 W/m 9,0 C 23,5 C 29,1 km/h (5 Bft)
25.07.2015 15:00 24,7 C 35 % 1005,7 hPa 0,0 l/m 20,7 km/h (4 Bft) W 1,00 h 0,686 mm 4,9 UV-I 765 W/m 8,3 C 22,3 C 32,9 km/h (5 Bft)
25.07.2015 16:00 23,3 C 40 % 1006,3 hPa 0,0 l/m 20,3 km/h (4 Bft) W-SW 1,00 h 0,660 mm 3,1 UV-I 512 W/m 8,8 C 20,6 C 33,5 km/h (5 Bft)
25.07.2015 17:00 22,3 C 40 % 1006,9 hPa 0,0 l/m 22,4 km/h (4 Bft) W 1,00 h 0,483 mm 2,0 UV-I 466 W/m 8,1 C 18,9 C 36,1 km/h (5 Bft)
25.07.2015 18:00 20,5 C 45 % 1007,9 hPa 0,0 l/m 18,9 km/h (3 Bft) W 1,00 h 0,457 mm 0,8 UV-I 102 W/m 8,0 C 17,1 C 30,4 km/h (5 Bft)
25.07.2015 19:00 18,7 C 51 % 1009,0 hPa 0,0 l/m 19,7 km/h (3 Bft) W 0,68 h 0,203 mm 0,5 UV-I 57 W/m 8,3 C 14,6 C 32,8 km/h (5 Bft)
25.07.2015 20:00 16,8 C 58 % 1009,9 hPa 0,0 l/m 18,3 km/h (3 Bft) W 0,00 h 0,178 mm 0,0 UV-I 15 W/m 8,5 C 12,7 C 29,5 km/h (5 Bft)
25.07.2015 21:00 15,8 C 62 % 1011,1 hPa 0,0 l/m 15,2 km/h (3 Bft) W 0,00 h 0,102 mm 0,0 UV-I 0 W/m 8,6 C 12,2 C 23,9 km/h (4 Bft)
25.07.2015 22:00 15,2 C 63 % 1012,2 hPa 0,0 l/m 15,1 km/h (3 Bft) W 0,00 h 0,076 mm 0,0 UV-I 0 W/m 8,2 C 11,5 C 24,2 km/h (4 Bft)
25.07.2015 23:00 14,7 C 63 % 1013,0 hPa 0,0 l/m 15,8 km/h (3 Bft) W 0,00 h 0,076 mm 0,0 UV-I 0 W/m 7,8 C 10,7 C 26,1 km/h (4 Bft)
26.07.2015 00:00 14,3 C 64 % 1013,4 hPa 0,0 l/m 12,8 km/h (3 Bft) W 0,00 h 0,076 mm 0,0 UV-I 0 W/m 7,6 C 11,3 C 20,4 km/h (4 Bft)
26.07.2015 01:00 13,8 C 67 % 1013,5 hPa 0,0 l/m 12,2 km/h (2 Bft) W 0,00 h 0,076 mm 0,0 UV-I 0 W/m 7,8 C 11,0 C 19,5 km/h (3 Bft)
26.07.2015 02:00 13,2 C 68 % 1013,8 hPa 0,0 l/m 11,2 km/h (2 Bft) W 0,00 h 0,051 mm 0,0 UV-I 0 W/m 7,5 C 10,6 C 18,1 km/h (3 Bft)
26.07.2015 03:00 12,4 C 71 % 1014,3 hPa 0,0 l/m 10,2 km/h (2 Bft) W-SW 0,00 h 0,051 mm 0,0 UV-I 0 W/m 7,3 C 10,3 C 16,3 km/h (3 Bft)
26.07.2015 04:00 11,8 C 73 % 1014,7 hPa 0,0 l/m 10,9 km/h (2 Bft) W-SW 0,00 h 0,051 mm 0,0 UV-I 0 W/m 7,0 C 9,2 C 16,8 km/h (3 Bft)
26.07.2015 05:00 10,7 C 75 % 1015,1 hPa 0,0 l/m 6,9 km/h (2 Bft) W-SW 0,00 h 0,051 mm 0,0 UV-I 11 W/m 6,4 C 10,0 C 11,4 km/h (2 Bft)
26.07.2015 06:00 10,8 C 76 % 1015,4 hPa 0,0 l/m 5,3 km/h (1 Bft) W-SW 0,18 h 0,025 mm 0,0 UV-I 40 W/m 6,8 C 10,3 C 10,0 km/h (2 Bft)
26.07.2015 07:00 11,1 C 77 % 1015,8 hPa 0,0 l/m 7,0 km/h (2 Bft) W-SW 1,00 h 0,025 mm 0,6 UV-I 93 W/m 7,1 C 10,1 C 12,6 km/h (3 Bft)
26.07.2015 08:00 11,8 C 73 % 1016,2 hPa 0,0 l/m 7,1 km/h (2 Bft) W-SW 1,00 h 0,076 mm 0,8 UV-I 160 W/m 7,0 C 11,0 C 12,5 km/h (2 Bft)
26.07.2015 09:00 13,4 C 65 % 1016,2 hPa 0,0 l/m 5,7 km/h (2 Bft) W-SW 1,00 h 0,102 mm 2,0 UV-I 412 W/m 6,9 C 12,8 C 11,0 km/h (2 Bft)
26.07.2015 10:00 14,9 C 60 % 1016,0 hPa 0,0 l/m 6,3 km/h (2 Bft) W-SW 1,00 h 0,229 mm 3,2 UV-I 608 W/m 7,3 C 14,1 C 11,6 km/h (2 Bft)
26.07.2015 11:00 16,5 C 52 % 1015,4 hPa 0,0 l/m 5,3 km/h (1 Bft) W 1,00 h 0,330 mm 4,9 UV-I 778 W/m 6,6 C 15,9 C 9,8 km/h (2 Bft)
26.07.2015 12:00 18,1 C 47 % 1014,6 hPa 0,0 l/m 4,5 km/h (1 Bft) W-SW 1,00 h 0,432 mm 6,1 UV-I 846 W/m 6,5 C 17,7 C 10,1 km/h (2 Bft)
26.07.2015 13:00 19,7 C 41 % 1013,9 hPa 0,0 l/m 4,6 km/h (1 Bft) W-SW 1,00 h 0,508 mm 6,3 UV-I 873 W/m 6,0 C 19,3 C 8,9 km/h (2 Bft)
26.07.2015 14:00 20,8 C 38 % 1012,9 hPa 0,0 l/m 3,2 km/h (1 Bft) N 1,00 h 0,533 mm 5,8 UV-I 838 W/m 5,8 C 20,6 C 7,8 km/h (2 Bft)
26.07.2015 15:00 21,3 C 36 % 1011,8 hPa 0,0 l/m 1,9 km/h (1 Bft) N 1,00 h 0,508 mm 4,8 UV-I 750 W/m 5,4 C 21,2 C 4,9 km/h (1 Bft)
26.07.2015 16:00 21,0 C 33 % 1010,9 hPa 0,0 l/m 1,6 km/h (1 Bft) N 1,00 h 0,457 mm 3,4 UV-I 629 W/m 4,3 C 20,9 C 4,2 km/h (1 Bft)
26.07.2015 17:00 20,9 C 33 % 1010,1 hPa 0,0 l/m 2,2 km/h (1 Bft) S-SO 1,00 h 0,381 mm 2,0 UV-I 427 W/m 4,0 C 20,8 C 6,4 km/h (2 Bft)
26.07.2015 18:00 20,0 C 33 % 1009,4 hPa 0,0 l/m 1,7 km/h (1 Bft) S-SO 0,48 h 0,279 mm 1,0 UV-I 51 W/m 3,4 C 20,0 C 4,7 km/h (1 Bft)
26.07.2015 19:00 19,5 C 35 % 1008,8 hPa 0,0 l/m 0,3 km/h (0 Bft) N 0,35 h 0,051 mm 0,5 UV-I 40 W/m 3,8 C 19,5 C 1,2 km/h (1 Bft)
26.07.2015 20:00 18,6 C 40 % 1008,2 hPa 0,0 l/m 0,0 km/h (0 Bft) N 0,00 h 0,051 mm 0,0 UV-I 15 W/m 4,6 C 18,6 C 0,0 km/h (0 Bft)
26.07.2015 21:00 16,6 C 51 % 1008,1 hPa 0,0 l/m 0,0 km/h (0 Bft) N 0,00 h 0,025 mm 0,0 UV-I 0 W/m 6,3 C 16,6 C 0,3 km/h (0 Bft)
26.07.2015 22:00 15,8 C 54 % 1007,7 hPa 0,0 l/m 0,0 km/h (0 Bft) N 0,00 h 0,000 mm 0,0 UV-I 0 W/m 6,5 C 15,8 C 0,4 km/h (0 Bft)
26.07.2015 23:00 15,7 C 56 % 1007,3 hPa 0,0 l/m 0,0 km/h (0 Bft) N 0,00 h 0,025 mm 0,0 UV-I 0 W/m 7,0 C 15,7 C 0,0 km/h (0 Bft)
Min-Datum _ 23.07.15 22.07.15 25.07.15 - 20.07.15 - - - - - 26.07.15 26.07.15 20.07.15
_ Min-Zeit 08:09 14:03 02:46 - 00:00 - - - - - 18:18 04:42 00:00
Minimum _ 0,0 C 29 % 1002,5 hPa - 0,0 km/h (0 Bft) - - - - - 2,4 C 5,6 C 0,0 km/h (0 Bft)
Max-Datum _ 22.07.15 23.07.15 26.07.15 25.07.15 25.07.15 - 25.07.15 22.07.15 20.07.15 20.07.15 22.07.15 22.07.15 25.07.15
_ Max-Zeit 15:18 03:49 08:33 03:18 17:45 - 08:50 14:00 13:18 13:28 09:36 15:18 19:24
Maximum _ 34,8 C 96 % 1016,4 hPa 3,4 l/m 33,8 km/h
W (5 Bft)
- 1,00 h 0,686 mm 8,8 UV-I 1178 W/m 19,9 C 34,8 C 59,5 km/h
W (7 Bft)
Durchschnitt _ 20,7 C 69 % 1011,8 hPa #7,0 l/m 3,7 km/h (1 Bft) N #83:07 h #26,410 mm 2,9 UV-I 323 W/m 14,0 C 20,3 C 7,1 km/h (2 Bft)